createdAt,value
2023-04-13T00:02:27.935Z,100833.34
2023-04-13T00:05:00.048Z,100838.22
2023-04-13T00:07:30.197Z,100830.00
2023-04-13T00:10:00.061Z,100833.88
2023-04-13T00:12:29.820Z,100838.00
2023-04-13T00:14:59.636Z,100827.78
2023-04-13T00:17:29.495Z,100835.69
2023-04-13T00:19:59.645Z,100829.47
2023-04-13T00:22:32.664Z,100820.56
2023-04-13T00:25:03.874Z,100816.13
2023-04-13T00:27:33.613Z,100812.66
2023-04-13T00:30:06.060Z,100804.41
2023-04-13T00:32:35.883Z,100802.09
2023-04-13T00:35:06.208Z,100799.50
2023-04-13T00:37:38.881Z,100804.22
2023-04-13T00:40:13.370Z,100814.03
2023-04-13T00:42:50.281Z,100807.88
2023-04-13T00:45:25.757Z,100818.69
2023-04-13T00:48:01.622Z,100832.69
2023-04-13T00:50:35.604Z,100838.28
2023-04-13T00:53:09.954Z,100822.69
2023-04-13T00:55:43.867Z,100823.66
2023-04-13T00:58:16.278Z,100822.97
2023-04-13T01:00:49.577Z,100823.53
2023-04-13T01:03:26.680Z,100820.13
2023-04-13T01:06:08.431Z,100816.41
2023-04-13T01:08:44.076Z,100816.22
2023-04-13T01:11:33.852Z,100811.94
2023-04-13T01:14:19.918Z,100809.63
2023-04-13T01:16:53.358Z,100806.81
2023-04-13T01:19:44.148Z,100814.06
2023-04-13T01:22:17.048Z,100818.81
2023-04-13T01:25:02.976Z,100826.91
2023-04-13T01:27:36.702Z,100832.63
2023-04-13T01:30:07.972Z,100829.06
2023-04-13T01:32:41.375Z,100831.91
2023-04-13T01:35:12.622Z,100839.44
2023-04-13T01:37:48.031Z,100830.91
2023-04-13T01:40:17.024Z,100832.94
2023-04-13T01:42:49.270Z,100834.88
2023-04-13T01:45:24.172Z,100829.78
2023-04-13T01:48:14.421Z,100827.75
2023-04-13T01:50:45.733Z,100816.28
2023-04-13T01:53:18.888Z,100816.94
2023-04-13T01:55:51.539Z,100813.88
2023-04-13T01:58:21.244Z,100808.50
2023-04-13T02:00:52.240Z,100800.88
2023-04-13T02:03:24.773Z,100787.50
2023-04-13T02:05:55.199Z,100776.34
2023-04-13T02:08:25.234Z,100771.34
2023-04-13T02:10:54.946Z,100762.88
2023-04-13T02:13:25.167Z,100759.53
2023-04-13T02:15:55.633Z,100764.66
2023-04-13T02:18:27.102Z,100766.31
2023-04-13T02:21:13.790Z,100768.53
2023-04-13T02:23:43.731Z,100754.16
2023-04-13T02:26:20.341Z,100747.72
2023-04-13T02:28:52.843Z,100738.75
2023-04-13T02:31:24.770Z,100747.66
2023-04-13T02:33:55.204Z,100741.72
2023-04-13T02:36:26.356Z,100751.34
2023-04-13T02:38:56.578Z,100735.09
2023-04-13T02:41:27.532Z,100712.50
2023-04-13T02:43:57.925Z,100714.91
2023-04-13T02:46:28.909Z,100717.03
2023-04-13T02:48:59.829Z,100713.44
2023-04-13T02:51:29.546Z,100708.94
2023-04-13T02:54:00.614Z,100709.06
2023-04-13T02:56:32.422Z,100701.25
2023-04-13T02:59:06.147Z,100696.03
2023-04-13T03:01:35.904Z,100695.25
2023-04-13T03:04:05.657Z,100695.00
2023-04-13T03:06:36.630Z,100697.34
2023-04-13T03:09:07.322Z,100685.53
2023-04-13T03:11:36.931Z,100679.03
2023-04-13T03:14:06.737Z,100667.06
2023-04-13T03:16:36.479Z,100668.91
2023-04-13T03:19:07.036Z,100657.53
2023-04-13T03:21:37.134Z,100667.69
2023-04-13T03:24:08.241Z,100666.84
2023-04-13T03:26:38.963Z,100663.59
2023-04-13T03:29:08.586Z,100657.38
2023-04-13T03:31:41.196Z,100656.53
2023-04-13T03:34:10.963Z,100630.66
2023-04-13T03:36:40.578Z,100635.84
2023-04-13T03:39:10.203Z,100646.56
2023-04-13T03:41:41.028Z,100666.28
2023-04-13T03:44:10.922Z,100650.38
2023-04-13T03:46:41.805Z,100643.94
2023-04-13T03:49:13.632Z,100630.50
2023-04-13T03:51:46.052Z,100637.78
2023-04-13T03:54:15.713Z,100649.44
2023-04-13T03:56:45.789Z,100636.81
2023-04-13T03:59:18.708Z,100628.03
2023-04-13T04:01:48.527Z,100620.56
2023-04-13T04:04:18.298Z,100623.66
2023-04-13T04:06:49.662Z,100622.22
2023-04-13T04:09:20.468Z,100621.84
2023-04-13T04:11:50.196Z,100593.19
2023-04-13T04:14:20.058Z,100595.22
2023-04-13T04:16:50.375Z,100596.44
2023-04-13T04:19:23.775Z,100600.97
2023-04-13T04:21:54.444Z,100587.25
2023-04-13T04:24:29.065Z,100592.00
2023-04-13T04:26:59.657Z,100583.09
2023-04-13T04:29:39.109Z,100585.84
2023-04-13T04:32:12.183Z,100579.88
2023-04-13T04:34:42.616Z,100567.44
2023-04-13T04:37:32.026Z,100564.41
2023-04-13T04:40:02.454Z,100564.41
2023-04-13T04:42:32.171Z,100546.19
2023-04-13T04:45:02.640Z,100541.78
2023-04-13T04:47:33.760Z,100554.88
2023-04-13T04:50:03.461Z,100554.56
2023-04-13T04:52:42.051Z,100557.22
2023-04-13T04:55:12.252Z,100556.06
2023-04-13T04:57:41.906Z,100538.63
2023-04-13T05:00:17.378Z,100537.34
2023-04-13T05:02:46.929Z,100530.88
2023-04-13T05:05:17.316Z,100533.97
2023-04-13T05:07:47.660Z,100532.25
2023-04-13T05:10:18.043Z,100526.44
2023-04-13T05:12:48.489Z,100521.34
2023-04-13T05:15:18.185Z,100516.78
2023-04-13T05:17:48.937Z,100513.81
2023-04-13T05:20:19.382Z,100512.06
2023-04-13T05:22:49.175Z,100514.88
2023-04-13T05:25:18.990Z,100510.06
2023-04-13T05:27:48.719Z,100508.44
2023-04-13T05:30:18.567Z,100505.34
2023-04-13T05:32:48.470Z,100504.88
2023-04-13T05:35:18.617Z,100515.91
2023-04-13T05:37:48.721Z,100515.84
2023-04-13T05:40:18.666Z,100518.50
2023-04-13T05:42:51.708Z,100506.19
2023-04-13T05:45:22.029Z,100516.78
2023-04-13T05:47:51.811Z,100511.84
2023-04-13T05:50:21.836Z,100506.19
2023-04-13T05:52:51.934Z,100505.50
2023-04-13T05:55:23.518Z,100503.47
2023-04-13T05:57:53.410Z,100506.59
2023-04-13T06:00:23.406Z,100504.28
2023-04-13T06:02:53.733Z,100501.53
2023-04-13T06:05:23.889Z,100500.34
2023-04-13T06:07:54.562Z,100510.88
2023-04-13T06:10:24.767Z,100509.84
2023-04-13T06:12:55.962Z,100497.63
2023-04-13T06:15:26.957Z,100480.13
2023-04-13T06:17:59.484Z,100479.06
2023-04-13T06:20:29.309Z,100473.50
2023-04-13T06:22:59.338Z,100469.81
2023-04-13T06:25:30.274Z,100474.56
2023-04-13T06:28:01.985Z,100475.00
2023-04-13T06:30:35.713Z,100471.50
2023-04-13T06:33:05.849Z,100469.56
2023-04-13T06:35:35.562Z,100467.25
2023-04-13T06:38:05.487Z,100457.06
2023-04-13T06:40:39.068Z,100443.44
2023-04-13T06:43:18.953Z,100437.22
2023-04-13T06:46:03.774Z,100435.78
2023-04-13T06:48:33.437Z,100440.00
2023-04-13T06:51:03.176Z,100431.06
2023-04-13T06:53:33.105Z,100429.41
2023-04-13T06:56:02.809Z,100431.88
2023-04-13T06:58:32.948Z,100416.44
2023-04-13T07:01:02.752Z,100402.88
2023-04-13T07:03:34.108Z,100401.38
2023-04-13T07:06:04.192Z,100379.59
2023-04-13T07:08:33.883Z,100374.19
2023-04-13T07:11:04.950Z,100384.13
2023-04-13T07:13:34.696Z,100398.16
2023-04-13T07:16:05.457Z,100395.63
2023-04-13T07:18:36.075Z,100381.75
2023-04-13T07:21:06.105Z,100383.47
2023-04-13T07:23:36.320Z,100381.34
2023-04-13T07:26:06.364Z,100378.00
2023-04-13T07:28:36.152Z,100381.13
2023-04-13T07:31:10.311Z,100376.94
2023-04-13T07:33:40.406Z,100367.34
2023-04-13T07:36:10.593Z,100368.41
2023-04-13T07:38:40.289Z,100369.06
2023-04-13T07:41:10.031Z,100369.53
2023-04-13T07:43:39.715Z,100365.97
2023-04-13T07:46:14.142Z,100370.75
2023-04-13T07:48:58.456Z,100340.53
2023-04-13T07:51:28.721Z,100336.59
2023-04-13T07:53:58.709Z,100330.53
2023-04-13T07:56:29.091Z,100333.25
2023-04-13T07:58:59.150Z,100335.31
2023-04-13T08:01:29.898Z,100330.41
2023-04-13T08:03:59.867Z,100329.84
2023-04-13T08:06:30.154Z,100336.91
2023-04-13T08:09:00.543Z,100336.44
2023-04-13T08:11:30.394Z,100349.75
2023-04-13T08:14:00.216Z,100353.06
2023-04-13T08:16:35.306Z,100353.06
2023-04-13T08:19:05.452Z,100355.56
2023-04-13T08:21:36.090Z,100358.22
2023-04-13T08:24:05.882Z,100360.91
2023-04-13T08:26:36.553Z,100357.91
2023-04-13T08:29:06.643Z,100358.34
2023-04-13T08:31:36.386Z,100359.56
2023-04-13T08:34:06.320Z,100362.25
2023-04-13T08:36:36.028Z,100364.72
2023-04-13T08:39:06.937Z,100354.31
2023-04-13T08:41:38.564Z,100359.69
2023-04-13T08:44:11.741Z,100372.50
2023-04-13T08:46:42.745Z,100383.91
2023-04-13T08:49:14.022Z,100381.19
2023-04-13T08:51:45.811Z,100374.97
2023-04-13T08:54:17.572Z,100379.69
2023-04-13T08:56:49.396Z,100381.78
2023-04-13T08:59:19.472Z,100375.34
2023-04-13T09:01:51.462Z,100364.75
2023-04-13T09:04:21.813Z,100358.94
2023-04-13T09:06:52.927Z,100348.38
2023-04-13T09:09:22.899Z,100353.16
2023-04-13T09:11:53.057Z,100364.75
2023-04-13T09:14:24.420Z,100367.31
2023-04-13T09:16:54.164Z,100367.09
2023-04-13T09:19:34.097Z,100372.06
2023-04-13T09:22:18.685Z,100374.91
2023-04-13T09:24:49.023Z,100388.88
2023-04-13T09:27:22.019Z,100384.81
2023-04-13T09:29:53.198Z,100390.31
2023-04-13T09:32:28.207Z,100390.16
2023-04-13T09:35:06.387Z,100397.09
2023-04-13T09:37:36.621Z,100397.56
2023-04-13T09:40:16.137Z,100402.91
2023-04-13T09:43:02.610Z,100400.38
2023-04-13T09:45:40.267Z,100409.63
2023-04-13T09:48:20.950Z,100412.69
2023-04-13T09:51:03.718Z,100414.09
2023-04-13T09:53:48.769Z,100416.31
2023-04-13T09:56:19.048Z,100414.84
2023-04-13T09:58:49.899Z,100411.13
2023-04-13T10:01:19.558Z,100418.88
2023-04-13T10:03:49.531Z,100422.97
2023-04-13T10:06:22.502Z,100424.22
2023-04-13T10:08:52.213Z,100418.50
2023-04-13T10:11:22.987Z,100424.81
2023-04-13T10:13:58.312Z,100427.63
2023-04-13T10:16:40.216Z,100419.56
2023-04-13T10:19:17.572Z,100420.63
2023-04-13T10:21:47.817Z,100426.59
2023-04-13T10:24:17.616Z,100430.91
2023-04-13T10:26:47.376Z,100443.16
2023-04-13T10:29:18.997Z,100426.34
2023-04-13T10:31:52.967Z,100432.78
2023-04-13T10:34:33.810Z,100436.09
2023-04-13T10:37:08.449Z,100433.16
2023-04-13T10:39:40.012Z,100432.16
2023-04-13T10:42:15.973Z,100446.94
2023-04-13T10:44:54.044Z,100445.53
2023-04-13T10:47:26.646Z,100447.28
2023-04-13T10:49:57.904Z,100437.78
2023-04-13T10:52:28.588Z,100432.91
2023-04-13T10:54:59.317Z,100430.19
2023-04-13T10:57:28.958Z,100440.16
2023-04-13T10:59:59.510Z,100437.06
2023-04-13T11:02:33.571Z,100434.69
2023-04-13T11:05:03.558Z,100435.19
2023-04-13T11:07:35.290Z,100442.88
2023-04-13T11:10:05.632Z,100454.50
2023-04-13T11:12:36.825Z,100451.59
2023-04-13T11:15:07.015Z,100449.72
2023-04-13T11:17:36.753Z,100445.38
2023-04-13T11:20:11.798Z,100445.78
2023-04-13T11:22:47.389Z,100450.50
2023-04-13T11:25:18.210Z,100444.09
2023-04-13T11:27:51.548Z,100442.88
2023-04-13T11:30:25.236Z,100444.34
2023-04-13T11:32:59.923Z,100445.13
2023-04-13T11:35:29.680Z,100450.75
2023-04-13T11:38:00.212Z,100459.19
2023-04-13T11:40:29.977Z,100460.72
2023-04-13T11:43:00.237Z,100462.34
2023-04-13T11:45:30.948Z,100463.38
2023-04-13T11:48:06.849Z,100458.44
2023-04-13T11:50:36.596Z,100451.81
2023-04-13T11:53:06.674Z,100451.34
2023-04-13T11:55:51.881Z,100442.63
2023-04-13T11:58:24.486Z,100437.69
2023-04-13T12:00:58.327Z,100437.88
2023-04-13T12:03:47.090Z,100438.44
2023-04-13T12:06:23.459Z,100432.69
2023-04-13T12:09:09.364Z,100423.13
2023-04-13T12:11:50.021Z,100434.06
2023-04-13T12:17:06.148Z,100425.56
2023-04-13T12:19:47.056Z,100435.09
2023-04-13T12:22:20.355Z,100433.91
2023-04-13T12:24:51.087Z,100441.97
2023-04-13T12:27:21.409Z,100447.38
2023-04-13T12:29:51.958Z,100453.16
2023-04-13T12:32:21.813Z,100443.34
2023-04-13T12:34:51.910Z,100444.38
2023-04-13T12:37:21.985Z,100432.81
2023-04-13T12:39:51.947Z,100424.31
2023-04-13T12:42:21.540Z,100439.66
2023-04-13T12:44:51.201Z,100430.94
2023-04-13T12:47:20.947Z,100442.38
2023-04-13T12:49:51.016Z,100434.88
2023-04-13T12:52:21.699Z,100431.81
2023-04-13T12:54:51.444Z,100430.78
2023-04-13T12:57:21.106Z,100426.81
2023-04-13T12:59:50.709Z,100432.56
2023-04-13T13:02:22.353Z,100438.88
2023-04-13T13:04:54.000Z,100441.34
2023-04-13T13:07:24.998Z,100435.09
2023-04-13T13:09:56.215Z,100423.91
2023-04-13T13:12:31.425Z,100428.47
2023-04-13T13:15:03.146Z,100439.19
2023-04-13T13:17:33.509Z,100430.13
2023-04-13T13:20:03.547Z,100447.13
2023-04-13T13:22:34.087Z,100438.03
2023-04-13T13:25:03.683Z,100440.47
2023-04-13T13:28:05.388Z,100442.13
2023-04-13T13:30:23.397Z,100451.63
2023-04-13T13:32:53.513Z,100453.94
2023-04-13T13:35:23.834Z,100451.75
2023-04-13T13:37:53.938Z,100447.31
2023-04-13T13:40:23.971Z,100445.03
2023-04-13T13:42:56.248Z,100445.41
2023-04-13T13:45:26.059Z,100440.22
2023-04-13T13:47:56.196Z,100442.91
2023-04-13T13:50:25.976Z,100444.59
2023-04-13T13:53:03.846Z,100441.69
2023-04-13T13:55:34.501Z,100450.81
2023-04-13T13:58:04.900Z,100451.63
2023-04-13T14:00:34.655Z,100442.50
2023-04-13T14:03:04.842Z,100440.03
2023-04-13T14:05:34.577Z,100444.59
2023-04-13T14:08:04.280Z,100447.72
2023-04-13T14:10:33.938Z,100449.97
2023-04-13T14:13:03.639Z,100443.34
2023-04-13T14:15:33.379Z,100446.19
2023-04-13T14:18:10.682Z,100455.16
2023-04-13T14:20:41.399Z,100461.69
2023-04-13T14:23:11.209Z,100462.16
2023-04-13T14:25:42.640Z,100464.41
2023-04-13T14:28:12.645Z,100468.94
2023-04-13T14:30:42.375Z,100468.00
2023-04-13T14:33:12.152Z,100472.09
2023-04-13T14:35:41.942Z,100473.31
2023-04-13T14:38:13.335Z,100476.19
2023-04-13T14:40:43.105Z,100467.03
2023-04-13T14:43:13.537Z,100465.69
2023-04-13T14:45:43.234Z,100467.16
2023-04-13T14:48:13.307Z,100459.09
2023-04-13T14:50:46.130Z,100460.75
2023-04-13T14:53:15.799Z,100474.41
2023-04-13T14:55:48.020Z,100476.66
2023-04-13T14:58:17.669Z,100472.47
2023-04-13T15:00:47.314Z,100472.72
2023-04-13T15:03:18.158Z,100459.50
2023-04-13T15:05:49.635Z,100460.09
2023-04-13T15:08:21.130Z,100444.84
2023-04-13T15:10:50.803Z,100446.00
2023-04-13T15:13:20.460Z,100447.03
2023-04-13T15:15:50.342Z,100447.19
2023-04-13T15:18:20.400Z,100447.66
2023-04-13T15:20:50.178Z,100453.25
2023-04-13T15:23:20.361Z,100449.06
2023-04-13T15:25:50.669Z,100451.50
2023-04-13T15:28:20.391Z,100452.53
2023-04-13T15:30:51.152Z,100452.16
2023-04-13T15:33:21.594Z,100459.78
2023-04-13T15:35:52.765Z,100455.63
2023-04-13T15:38:22.510Z,100465.38
2023-04-13T15:40:52.164Z,100461.34
2023-04-13T15:43:22.256Z,100444.19
2023-04-13T15:45:52.387Z,100441.56
2023-04-13T15:48:22.198Z,100438.88
2023-04-13T15:50:59.703Z,100440.47
2023-04-13T15:53:30.073Z,100441.69
2023-04-13T15:56:00.112Z,100430.78
2023-04-13T15:58:30.592Z,100433.31
2023-04-13T16:01:11.005Z,100439.63
2023-04-13T16:03:42.151Z,100453.19
2023-04-13T16:06:12.474Z,100443.25
2023-04-13T16:08:42.171Z,100436.63
2023-04-13T16:11:12.138Z,100442.84
2023-04-13T16:13:49.381Z,100451.69
2023-04-13T16:16:23.162Z,100452.28
2023-04-13T16:18:53.054Z,100447.97
2023-04-13T16:21:24.706Z,100451.25
2023-04-13T16:23:56.349Z,100449.59
2023-04-13T16:26:26.172Z,100431.56
2023-04-13T16:28:55.943Z,100431.97
2023-04-13T16:31:25.803Z,100434.91
2023-04-13T16:33:56.043Z,100419.19
2023-04-13T16:36:26.770Z,100419.13
2023-04-13T16:38:56.500Z,100424.72
2023-04-13T16:41:26.231Z,100422.41
2023-04-13T16:43:55.891Z,100418.50
2023-04-13T16:46:25.592Z,100428.59
2023-04-13T16:48:55.312Z,100422.44
2023-04-13T16:51:26.907Z,100430.28
2023-04-13T16:53:56.672Z,100417.06
2023-04-13T16:56:31.433Z,100414.31
2023-04-13T16:59:02.219Z,100413.75
2023-04-13T17:01:33.628Z,100414.31
2023-04-13T17:04:04.476Z,100410.47
2023-04-13T17:06:36.472Z,100417.25
2023-04-13T17:09:09.670Z,100420.78
2023-04-13T17:11:39.423Z,100422.44
2023-04-13T17:14:09.788Z,100423.69
2023-04-13T17:16:42.652Z,100411.63
2023-04-13T17:19:13.268Z,100410.78
2023-04-13T17:21:42.987Z,100411.03
2023-04-13T17:24:12.726Z,100423.22
2023-04-13T17:26:42.950Z,100409.59
2023-04-13T17:29:12.626Z,100423.47
2023-04-13T17:31:45.415Z,100430.28
2023-04-13T17:34:15.273Z,100442.34
2023-04-13T17:36:44.975Z,100441.91
2023-04-13T17:39:14.646Z,100443.16
2023-04-13T17:41:44.811Z,100443.00
2023-04-13T17:44:14.900Z,100446.88
2023-04-13T17:46:44.718Z,100439.38
2023-04-13T17:49:14.851Z,100424.88
2023-04-13T17:51:49.266Z,100440.88
2023-04-13T17:54:19.037Z,100428.25
2023-04-13T17:56:49.392Z,100421.44
2023-04-13T17:59:19.112Z,100425.75
2023-04-13T18:01:49.373Z,100430.28
2023-04-13T18:04:19.279Z,100433.63
2023-04-13T18:06:49.459Z,100424.31
2023-04-13T18:09:20.007Z,100430.94
2023-04-13T18:11:50.305Z,100439.47
2023-04-13T18:14:20.008Z,100430.47
2023-04-13T18:16:49.657Z,100428.03
2023-04-13T18:19:19.640Z,100439.59
2023-04-13T18:21:49.357Z,100443.47
2023-04-13T18:24:19.469Z,100433.53
2023-04-13T18:26:49.861Z,100445.19
2023-04-13T18:29:19.858Z,100445.19
2023-04-13T18:31:49.610Z,100439.22
2023-04-13T18:34:19.693Z,100435.50
2023-04-13T18:36:49.378Z,100444.41
2023-04-13T18:39:19.618Z,100444.00
2023-04-13T18:41:50.349Z,100442.72
2023-04-13T18:44:20.021Z,100446.44
2023-04-13T18:46:50.470Z,100438.56
2023-04-13T18:49:20.808Z,100438.34
2023-04-13T18:51:50.436Z,100426.56
2023-04-13T18:54:20.106Z,100430.84
2023-04-13T18:56:52.599Z,100424.00
2023-04-13T18:59:25.143Z,100409.75
2023-04-13T19:01:54.909Z,100406.59
2023-04-13T19:04:25.626Z,100398.16
2023-04-13T19:06:55.313Z,100394.84
2023-04-13T19:09:24.979Z,100396.03
2023-04-13T19:11:55.779Z,100389.34
2023-04-13T19:14:25.489Z,100387.97
2023-04-13T19:16:55.698Z,100386.94
2023-04-13T19:19:25.710Z,100384.63
2023-04-13T19:21:57.403Z,100378.84
2023-04-13T19:24:27.443Z,100370.78
2023-04-13T19:26:57.997Z,100370.78
2023-04-13T19:29:31.598Z,100366.28
2023-04-13T19:32:02.222Z,100356.94
2023-04-13T19:34:31.942Z,100356.69
2023-04-13T19:37:02.103Z,100350.25
2023-04-13T19:39:31.781Z,100330.91
2023-04-13T19:42:01.823Z,100337.81
2023-04-13T19:44:31.516Z,100327.69
2023-04-13T19:47:01.211Z,100327.69
2023-04-13T19:49:30.939Z,100329.16
2023-04-13T19:52:01.210Z,100338.44
2023-04-13T19:54:31.541Z,100344.25
2023-04-13T19:57:01.183Z,100346.75
2023-04-13T19:59:31.593Z,100348.59
2023-04-13T20:02:01.298Z,100352.22
2023-04-13T20:04:31.571Z,100361.50
2023-04-13T20:07:02.173Z,100357.50
2023-04-13T20:09:32.405Z,100342.22
2023-04-13T20:12:02.320Z,100339.72
2023-04-13T20:14:32.499Z,100349.84
2023-04-13T20:17:02.424Z,100342.66
2023-04-13T20:19:37.767Z,100349.56
2023-04-13T20:22:08.597Z,100353.81
2023-04-13T20:24:38.274Z,100360.34
2023-04-13T20:27:07.922Z,100359.50
2023-04-13T20:29:38.175Z,100371.81
2023-04-13T20:32:08.767Z,100372.19
2023-04-13T20:34:42.109Z,100376.94
2023-04-13T20:37:13.598Z,100377.50
2023-04-13T20:39:52.250Z,100372.56
2023-04-13T20:42:22.768Z,100372.75
2023-04-13T20:45:01.593Z,100375.66
2023-04-13T20:47:32.993Z,100383.53
2023-04-13T20:50:04.125Z,100393.25
2023-04-13T20:52:33.786Z,100394.28
2023-04-13T20:55:03.877Z,100394.00
2023-04-13T20:57:34.451Z,100402.34
2023-04-13T21:00:15.727Z,100388.13
2023-04-13T21:02:47.011Z,100377.31
2023-04-13T21:05:16.895Z,100397.81
2023-04-13T21:07:46.829Z,100402.97
2023-04-13T21:10:19.308Z,100393.09
2023-04-13T21:12:48.955Z,100393.72
2023-04-13T21:15:18.667Z,100391.78
2023-04-13T21:17:50.388Z,100397.06
2023-04-13T21:20:20.187Z,100402.16
2023-04-13T21:22:49.923Z,100415.16
2023-04-13T21:25:19.602Z,100409.31
2023-04-13T21:27:49.619Z,100403.59
2023-04-13T21:30:19.334Z,100426.50
2023-04-13T21:32:49.125Z,100426.75
2023-04-13T21:35:18.949Z,100423.97
2023-04-13T21:37:48.578Z,100421.47
2023-04-13T21:40:19.668Z,100428.44
2023-04-13T21:42:49.316Z,100434.28
2023-04-13T21:45:18.962Z,100429.81
2023-04-13T21:47:49.418Z,100419.06
2023-04-13T21:50:19.150Z,100418.16
2023-04-13T21:52:49.194Z,100416.56
2023-04-13T21:55:21.986Z,100417.75
2023-04-13T21:57:51.807Z,100422.50
2023-04-13T22:00:22.351Z,100423.53
2023-04-13T22:02:54.157Z,100426.84
2023-04-13T22:05:23.871Z,100428.91
2023-04-13T22:07:53.517Z,100438.63
2023-04-13T22:10:23.273Z,100427.88
2023-04-13T22:12:52.983Z,100434.41
2023-04-13T22:15:22.795Z,100458.34
2023-04-13T22:17:52.589Z,100457.09
2023-04-13T22:20:22.803Z,100450.44
2023-04-13T22:22:52.574Z,100459.81
2023-04-13T22:25:27.074Z,100460.44
2023-04-13T22:27:57.203Z,100469.59
2023-04-13T22:30:27.940Z,100471.00
2023-04-13T22:33:01.294Z,100473.69
2023-04-13T22:35:31.017Z,100465.81
2023-04-13T22:38:03.508Z,100464.97
2023-04-13T22:40:33.268Z,100463.09
2023-04-13T22:43:05.897Z,100472.00
2023-04-13T22:45:39.022Z,100460.69
2023-04-13T22:48:11.569Z,100480.56
2023-04-13T22:50:41.344Z,100497.34
2023-04-13T22:53:16.976Z,100485.53
2023-04-13T22:55:48.334Z,100479.66
2023-04-13T22:58:19.693Z,100490.88
2023-04-13T23:00:49.994Z,100495.22
2023-04-13T23:03:20.361Z,100494.63
2023-04-13T23:05:50.213Z,100488.69
2023-04-13T23:08:19.928Z,100496.66
2023-04-13T23:10:51.555Z,100491.91
2023-04-13T23:13:22.304Z,100500.44
2023-04-13T23:15:52.062Z,100504.16
2023-04-13T23:18:24.548Z,100505.09
2023-04-13T23:20:54.313Z,100521.25
2023-04-13T23:23:25.608Z,100527.38
2023-04-13T23:25:57.361Z,100528.66
2023-04-13T23:28:27.406Z,100526.66
2023-04-13T23:31:07.848Z,100521.25
2023-04-13T23:33:38.007Z,100519.59
2023-04-13T23:36:08.590Z,100523.84
2023-04-13T23:38:38.438Z,100506.59
2023-04-13T23:41:08.252Z,100503.91
2023-04-13T23:43:38.562Z,100502.41
2023-04-13T23:46:08.857Z,100489.56
2023-04-13T23:48:38.635Z,100492.00
2023-04-13T23:51:08.585Z,100506.19
2023-04-13T23:53:38.296Z,100505.00
2023-04-13T23:56:11.539Z,100501.38
2023-04-13T23:58:41.186Z,100505.38
